sensor_id;sensor_type;location;lat;lon;timestamp;pressure;altitude;pressure_sealevel;temperature;humidity
35307;BME280;21420;52.196;21.416;2024-03-07T00:01:10;101248.02;;;2.83;66.06
35307;BME280;21420;52.196;21.416;2024-03-07T00:03:37;101248.17;;;2.83;66.02
35307;BME280;21420;52.196;21.416;2024-03-07T00:06:05;101246.20;;;2.77;65.90
35307;BME280;21420;52.196;21.416;2024-03-07T00:08:32;101246.65;;;2.71;65.89
35307;BME280;21420;52.196;21.416;2024-03-07T00:10:59;101247.56;;;2.69;65.96
35307;BME280;21420;52.196;21.416;2024-03-07T00:13:26;101248.05;;;2.68;65.95
35307;BME280;21420;52.196;21.416;2024-03-07T00:15:55;101247.98;;;2.66;66.02
35307;BME280;21420;52.196;21.416;2024-03-07T00:18:22;101247.91;;;2.64;66.01
35307;BME280;21420;52.196;21.416;2024-03-07T00:20:49;101248.48;;;2.60;65.91
35307;BME280;21420;52.196;21.416;2024-03-07T00:23:16;101244.89;;;2.57;65.99
35307;BME280;21420;52.196;21.416;2024-03-07T00:25:43;101244.00;;;2.53;66.01
35307;BME280;21420;52.196;21.416;2024-03-07T00:28:10;101244.29;;;2.48;66.05
35307;BME280;21420;52.196;21.416;2024-03-07T00:30:36;101246.96;;;2.44;66.11
35307;BME280;21420;52.196;21.416;2024-03-07T00:33:03;101247.06;;;2.40;66.02
35307;BME280;21420;52.196;21.416;2024-03-07T00:35:31;101243.58;;;2.37;66.01
35307;BME280;21420;52.196;21.416;2024-03-07T00:37:58;101246.92;;;2.36;65.99
35307;BME280;21420;52.196;21.416;2024-03-07T00:40:24;101243.45;;;2.35;66.10
35307;BME280;21420;52.196;21.416;2024-03-07T00:42:51;101239.38;;;2.32;66.04
35307;BME280;21420;52.196;21.416;2024-03-07T00:45:18;101239.79;;;2.29;66.11
35307;BME280;21420;52.196;21.416;2024-03-07T00:47:44;101237.50;;;2.26;66.06
35307;BME280;21420;52.196;21.416;2024-03-07T00:50:11;101233.33;;;2.25;66.21
35307;BME280;21420;52.196;21.416;2024-03-07T00:52:38;101231.81;;;2.25;66.19
35307;BME280;21420;52.196;21.416;2024-03-07T00:55:06;101231.11;;;2.25;66.27
35307;BME280;21420;52.196;21.416;2024-03-07T00:57:35;101231.88;;;2.26;66.26
35307;BME280;21420;52.196;21.416;2024-03-07T01:00:02;101231.40;;;2.27;66.23
35307;BME280;21420;52.196;21.416;2024-03-07T01:02:30;101230.52;;;2.26;66.29
35307;BME280;21420;52.196;21.416;2024-03-07T01:04:56;101231.98;;;2.26;66.28
35307;BME280;21420;52.196;21.416;2024-03-07T01:07:23;101231.16;;;2.26;66.27
35307;BME280;21420;52.196;21.416;2024-03-07T01:09:50;101230.54;;;2.27;66.37
35307;BME280;21420;52.196;21.416;2024-03-07T01:12:18;101232.98;;;2.27;66.35
35307;BME280;21420;52.196;21.416;2024-03-07T01:14:46;101233.58;;;2.28;66.32
35307;BME280;21420;52.196;21.416;2024-03-07T01:17:13;101236.88;;;2.29;66.35
35307;BME280;21420;52.196;21.416;2024-03-07T01:19:40;101238.05;;;2.28;66.36
35307;BME280;21420;52.196;21.416;2024-03-07T01:22:07;101238.96;;;2.28;66.34
35307;BME280;21420;52.196;21.416;2024-03-07T01:24:35;101239.20;;;2.29;66.37
35307;BME280;21420;52.196;21.416;2024-03-07T01:27:02;101239.20;;;2.29;66.37
35307;BME280;21420;52.196;21.416;2024-03-07T01:29:29;101240.86;;;2.27;66.33
35307;BME280;21420;52.196;21.416;2024-03-07T01:31:56;101242.94;;;2.24;66.33
35307;BME280;21420;52.196;21.416;2024-03-07T01:34:23;101241.88;;;2.20;66.30
35307;BME280;21420;52.196;21.416;2024-03-07T01:36:50;101242.98;;;2.16;66.30
35307;BME280;21420;52.196;21.416;2024-03-07T01:39:17;101244.70;;;2.14;66.28
35307;BME280;21420;52.196;21.416;2024-03-07T01:41:44;101244.44;;;2.10;66.25
35307;BME280;21420;52.196;21.416;2024-03-07T01:44:11;101244.39;;;2.10;66.30
35307;BME280;21420;52.196;21.416;2024-03-07T01:46:38;101245.59;;;2.09;66.31
35307;BME280;21420;52.196;21.416;2024-03-07T01:49:05;101243.80;;;2.08;66.28
35307;BME280;21420;52.196;21.416;2024-03-07T01:51:36;101243.59;;;2.10;66.29
35307;BME280;21420;52.196;21.416;2024-03-07T01:54:03;101244.06;;;2.10;66.39
35307;BME280;21420;52.196;21.416;2024-03-07T01:56:30;101246.13;;;2.11;66.42
35307;BME280;21420;52.196;21.416;2024-03-07T01:58:58;101245.91;;;2.11;66.42
35307;BME280;21420;52.196;21.416;2024-03-07T02:01:27;101247.73;;;2.10;66.38
35307;BME280;21420;52.196;21.416;2024-03-07T02:03:54;101249.80;;;2.09;66.39
35307;BME280;21420;52.196;21.416;2024-03-07T02:06:21;101247.88;;;2.07;66.45
35307;BME280;21420;52.196;21.416;2024-03-07T02:08:48;101246.70;;;2.08;66.37
35307;BME280;21420;52.196;21.416;2024-03-07T02:11:15;101243.45;;;2.07;66.46
35307;BME280;21420;52.196;21.416;2024-03-07T02:13:42;101246.83;;;2.04;66.33
35307;BME280;21420;52.196;21.416;2024-03-07T02:16:09;101242.92;;;2.02;66.28
35307;BME280;21420;52.196;21.416;2024-03-07T02:18:36;101241.25;;;2.01;66.36
35307;BME280;21420;52.196;21.416;2024-03-07T02:21:08;101238.73;;;1.99;66.42
35307;BME280;21420;52.196;21.416;2024-03-07T02:23:35;101236.49;;;1.95;66.39
35307;BME280;21420;52.196;21.416;2024-03-07T02:26:03;101236.08;;;1.92;66.47
35307;BME280;21420;52.196;21.416;2024-03-07T02:28:30;101234.48;;;1.88;66.32
35307;BME280;21420;52.196;21.416;2024-03-07T02:30:57;101234.83;;;1.84;66.31
35307;BME280;21420;52.196;21.416;2024-03-07T02:33:23;101235.15;;;1.82;66.33
35307;BME280;21420;52.196;21.416;2024-03-07T02:35:50;101237.30;;;1.82;66.39
35307;BME280;21420;52.196;21.416;2024-03-07T02:38:17;101238.34;;;1.83;66.39
35307;BME280;21420;52.196;21.416;2024-03-07T02:40:45;101241.79;;;1.82;66.41
35307;BME280;21420;52.196;21.416;2024-03-07T02:43:15;101240.57;;;1.79;66.43
35307;BME280;21420;52.196;21.416;2024-03-07T02:45:42;101242.54;;;1.77;66.43
35307;BME280;21420;52.196;21.416;2024-03-07T02:48:09;101242.79;;;1.74;66.41
35307;BME280;21420;52.196;21.416;2024-03-07T02:50:36;101244.55;;;1.72;66.31
35307;BME280;21420;52.196;21.416;2024-03-07T02:53:06;101245.44;;;1.68;66.36
35307;BME280;21420;52.196;21.416;2024-03-07T02:55:33;101245.80;;;1.62;66.31
35307;BME280;21420;52.196;21.416;2024-03-07T02:58:01;101245.30;;;1.56;66.19
35307;BME280;21420;52.196;21.416;2024-03-07T03:00:27;101243.63;;;1.51;66.22
35307;BME280;21420;52.196;21.416;2024-03-07T03:02:56;101246.11;;;1.44;66.27
35307;BME280;21420;52.196;21.416;2024-03-07T03:05:24;101246.70;;;1.35;66.29
35307;BME280;21420;52.196;21.416;2024-03-07T03:07:51;101245.59;;;1.22;66.18
35307;BME280;21420;52.196;21.416;2024-03-07T03:10:25;101248.70;;;1.10;66.22
35307;BME280;21420;52.196;21.416;2024-03-07T03:12:56;101251.77;;;0.97;66.16
35307;BME280;21420;52.196;21.416;2024-03-07T03:18:53;101251.82;;;0.69;66.20
35307;BME280;21420;52.196;21.416;2024-03-07T03:21:20;101252.09;;;0.58;66.08
35307;BME280;21420;52.196;21.416;2024-03-07T03:23:47;101252.62;;;0.50;66.17
35307;BME280;21420;52.196;21.416;2024-03-07T03:26:15;101251.52;;;0.40;66.19
35307;BME280;21420;52.196;21.416;2024-03-07T03:28:42;101253.33;;;0.31;66.06
35307;BME280;21420;52.196;21.416;2024-03-07T03:31:09;101251.91;;;0.20;66.14
35307;BME280;21420;52.196;21.416;2024-03-07T03:33:35;101257.54;;;0.09;66.11
35307;BME280;21420;52.196;21.416;2024-03-07T03:36:02;101255.30;;;-0.04;66.08
35307;BME280;21420;52.196;21.416;2024-03-07T03:38:30;101252.70;;;-0.13;66.07
35307;BME280;21420;52.196;21.416;2024-03-07T03:40:58;101257.98;;;-0.19;66.13
35307;BME280;21420;52.196;21.416;2024-03-07T03:43:24;101262.52;;;-0.26;66.13
35307;BME280;21420;52.196;21.416;2024-03-07T03:45:51;101263.55;;;-0.31;66.16
35307;BME280;21420;52.196;21.416;2024-03-07T03:48:18;101265.78;;;-0.38;66.05
35307;BME280;21420;52.196;21.416;2024-03-07T03:50:45;101265.84;;;-0.47;66.09
35307;BME280;21420;52.196;21.416;2024-03-07T03:53:13;101263.17;;;-0.57;66.11
35307;BME280;21420;52.196;21.416;2024-03-07T03:55:40;101263.65;;;-0.68;66.08
35307;BME280;21420;52.196;21.416;2024-03-07T03:58:07;101263.22;;;-0.79;66.07
35307;BME280;21420;52.196;21.416;2024-03-07T04:00:33;101261.13;;;-0.90;66.08
35307;BME280;21420;52.196;21.416;2024-03-07T04:03:00;101266.48;;;-0.99;65.94
35307;BME280;21420;52.196;21.416;2024-03-07T04:05:27;101265.98;;;-1.08;66.09
35307;BME280;21420;52.196;21.416;2024-03-07T04:07:54;101267.37;;;-1.15;66.02
35307;BME280;21420;52.196;21.416;2024-03-07T04:10:21;101263.55;;;-1.23;65.96
35307;BME280;21420;52.196;21.416;2024-03-07T04:12:48;101264.40;;;-1.29;66.06
35307;BME280;21420;52.196;21.416;2024-03-07T04:15:16;101264.16;;;-1.34;66.20
35307;BME280;21420;52.196;21.416;2024-03-07T04:17:45;101262.99;;;-1.40;66.15
35307;BME280;21420;52.196;21.416;2024-03-07T04:20:14;101266.00;;;-1.49;66.20
35307;BME280;21420;52.196;21.416;2024-03-07T04:22:44;101266.63;;;-1.54;66.08
35307;BME280;21420;52.196;21.416;2024-03-07T04:25:11;101267.69;;;-1.58;66.23
35307;BME280;21420;52.196;21.416;2024-03-07T04:27:38;101267.09;;;-1.61;66.28
35307;BME280;21420;52.196;21.416;2024-03-07T04:30:08;101268.17;;;-1.65;66.39
35307;BME280;21420;52.196;21.416;2024-03-07T04:32:38;101268.73;;;-1.68;66.27
35307;BME280;21420;52.196;21.416;2024-03-07T04:35:06;101268.55;;;-1.71;66.29
35307;BME280;21420;52.196;21.416;2024-03-07T04:37:40;101266.70;;;-1.73;66.21
35307;BME280;21420;52.196;21.416;2024-03-07T04:40:08;101267.13;;;-1.76;66.28
35307;BME280;21420;52.196;21.416;2024-03-07T04:42:48;101266.19;;;-1.79;66.29
35307;BME280;21420;52.196;21.416;2024-03-07T04:45:17;101266.80;;;-1.83;66.25
35307;BME280;21420;52.196;21.416;2024-03-07T04:47:45;101261.77;;;-1.87;66.33
35307;BME280;21420;52.196;21.416;2024-03-07T04:50:13;101264.33;;;-1.92;66.50
35307;BME280;21420;52.196;21.416;2024-03-07T04:52:44;101266.52;;;-1.95;66.59
35307;BME280;21420;52.196;21.416;2024-03-07T04:55:12;101270.11;;;-1.97;66.49
35307;BME280;21420;52.196;21.416;2024-03-07T04:57:40;101271.02;;;-2.00;66.46
35307;BME280;21420;52.196;21.416;2024-03-07T05:00:10;101271.64;;;-2.00;66.46
35307;BME280;21420;52.196;21.416;2024-03-07T05:02:45;101273.94;;;-2.01;66.65
35307;BME280;21420;52.196;21.416;2024-03-07T05:05:13;101276.16;;;-2.02;66.75
35307;BME280;21420;52.196;21.416;2024-03-07T05:07:41;101276.09;;;-2.02;66.72
35307;BME280;21420;52.196;21.416;2024-03-07T05:10:08;101275.07;;;-2.03;66.68
35307;BME280;21420;52.196;21.416;2024-03-07T05:12:35;101278.66;;;-2.03;66.65
35307;BME280;21420;52.196;21.416;2024-03-07T05:15:05;101281.11;;;-2.04;66.80
35307;BME280;21420;52.196;21.416;2024-03-07T05:17:32;101280.13;;;-2.04;66.86
35307;BME280;21420;52.196;21.416;2024-03-07T05:20:02;101286.95;;;-2.04;66.89
35307;BME280;21420;52.196;21.416;2024-03-07T05:22:30;101289.02;;;-2.07;67.02
35307;BME280;21420;52.196;21.416;2024-03-07T05:24:57;101289.20;;;-2.06;66.96
35307;BME280;21420;52.196;21.416;2024-03-07T05:27:25;101293.27;;;-2.05;67.05
35307;BME280;21420;52.196;21.416;2024-03-07T05:29:54;101292.95;;;-2.03;67.04
35307;BME280;21420;52.196;21.416;2024-03-07T05:32:26;101292.84;;;-1.98;67.13
35307;BME280;21420;52.196;21.416;2024-03-07T05:34:54;101296.19;;;-1.85;67.11
35307;BME280;21420;52.196;21.416;2024-03-07T05:37:21;101298.23;;;-1.58;67.31
35307;BME280;21420;52.196;21.416;2024-03-07T05:39:51;101296.83;;;-1.23;67.37
35307;BME280;21420;52.196;21.416;2024-03-07T05:42:20;101295.38;;;-0.82;67.47
35307;BME280;21420;52.196;21.416;2024-03-07T05:44:47;101294.02;;;-0.40;67.45
35307;BME280;21420;52.196;21.416;2024-03-07T05:47:14;101297.49;;;0.04;67.45
35307;BME280;21420;52.196;21.416;2024-03-07T05:49:41;101300.32;;;0.45;67.39
35307;BME280;21420;52.196;21.416;2024-03-07T05:52:07;101298.86;;;0.86;67.47
35307;BME280;21420;52.196;21.416;2024-03-07T05:54:35;101298.69;;;1.27;67.52
35307;BME280;21420;52.196;21.416;2024-03-07T05:57:02;101298.33;;;1.66;67.45
35307;BME280;21420;52.196;21.416;2024-03-07T05:59:29;101300.35;;;2.06;67.48
35307;BME280;21420;52.196;21.416;2024-03-07T06:01:57;101298.55;;;2.51;67.60
35307;BME280;21420;52.196;21.416;2024-03-07T06:04:24;101292.02;;;2.89;67.41
35307;BME280;21420;52.196;21.416;2024-03-07T06:06:51;101294.98;;;3.27;67.29
35307;BME280;21420;52.196;21.416;2024-03-07T06:09:18;101295.60;;;3.71;67.52
35307;BME280;21420;52.196;21.416;2024-03-07T06:11:50;101295.06;;;4.17;67.54
35307;BME280;21420;52.196;21.416;2024-03-07T06:14:18;101292.72;;;4.59;67.41
35307;BME280;21420;52.196;21.416;2024-03-07T06:16:46;101294.65;;;4.94;67.46
35307;BME280;21420;52.196;21.416;2024-03-07T06:19:13;101292.95;;;5.31;67.53
35307;BME280;21420;52.196;21.416;2024-03-07T06:21:40;101299.48;;;5.72;67.57
35307;BME280;21420;52.196;21.416;2024-03-07T06:24:08;101303.20;;;6.06;67.35
35307;BME280;21420;52.196;21.416;2024-03-07T06:26:38;101301.99;;;6.49;67.53
35307;BME280;21420;52.196;21.416;2024-03-07T06:29:08;101303.63;;;6.82;67.39
35307;BME280;21420;52.196;21.416;2024-03-07T06:31:38;101303.34;;;7.20;67.61
35307;BME280;21420;52.196;21.416;2024-03-07T06:34:05;101305.38;;;7.61;67.51
35307;BME280;21420;52.196;21.416;2024-03-07T06:36:33;101303.14;;;8.00;67.43
35307;BME280;21420;52.196;21.416;2024-03-07T06:39:00;101299.69;;;8.36;67.34
35307;BME280;21420;52.196;21.416;2024-03-07T06:41:27;101303.05;;;8.76;67.35
35307;BME280;21420;52.196;21.416;2024-03-07T06:43:54;101300.80;;;9.25;67.46
35307;BME280;21420;52.196;21.416;2024-03-07T06:46:22;101303.17;;;9.66;67.30
35307;BME280;21420;52.196;21.416;2024-03-07T06:48:48;101305.96;;;10.16;67.40
35307;BME280;21420;52.196;21.416;2024-03-07T06:51:15;101305.35;;;10.51;66.99
35307;BME280;21420;52.196;21.416;2024-03-07T06:53:45;101306.88;;;10.62;66.76
35307;BME280;21420;52.196;21.416;2024-03-07T06:56:17;101309.97;;;10.94;66.65
35307;BME280;21420;52.196;21.416;2024-03-07T06:58:44;101310.80;;;11.24;66.23
35307;BME280;21420;52.196;21.416;2024-03-07T07:01:13;101314.44;;;11.40;65.79
35307;BME280;21420;52.196;21.416;2024-03-07T07:03:42;101309.23;;;11.44;65.25
35307;BME280;21420;52.196;21.416;2024-03-07T07:06:14;101308.17;;;11.63;65.69
35307;BME280;21420;52.196;21.416;2024-03-07T07:08:41;101312.10;;;11.99;65.61
35307;BME280;21420;52.196;21.416;2024-03-07T07:11:09;101307.27;;;12.33;65.67
35307;BME280;21420;52.196;21.416;2024-03-07T07:13:39;101303.27;;;12.51;65.18
35307;BME280;21420;52.196;21.416;2024-03-07T07:16:06;101308.83;;;12.52;64.71
35307;BME280;21420;52.196;21.416;2024-03-07T07:18:33;101311.84;;;12.58;64.91
35307;BME280;21420;52.196;21.416;2024-03-07T07:21:03;101309.74;;;12.72;64.67
35307;BME280;21420;52.196;21.416;2024-03-07T07:23:31;101313.33;;;12.94;64.64
35307;BME280;21420;52.196;21.416;2024-03-07T07:25:58;101312.39;;;13.08;64.41
35307;BME280;21420;52.196;21.416;2024-03-07T07:28:25;101312.14;;;13.23;64.32
35307;BME280;21420;52.196;21.416;2024-03-07T07:30:52;101312.73;;;13.63;64.73
35307;BME280;21420;52.196;21.416;2024-03-07T07:33:19;101312.39;;;13.83;64.25
35307;BME280;21420;52.196;21.416;2024-03-07T07:35:47;101314.80;;;13.97;64.01
35307;BME280;21420;52.196;21.416;2024-03-07T07:38:14;101316.86;;;14.06;63.84
35307;BME280;21420;52.196;21.416;2024-03-07T07:40:42;101317.95;;;14.42;64.29
35307;BME280;21420;52.196;21.416;2024-03-07T07:43:12;101316.75;;;14.68;63.40
35307;BME280;21420;52.196;21.416;2024-03-07T07:45:51;101321.04;;;14.49;62.60
35307;BME280;21420;52.196;21.416;2024-03-07T07:48:19;101317.70;;;14.40;62.50
35307;BME280;21420;52.196;21.416;2024-03-07T07:50:49;101320.98;;;14.17;61.97
35307;BME280;21420;52.196;21.416;2024-03-07T07:53:17;101321.89;;;14.06;61.92
35307;BME280;21420;52.196;21.416;2024-03-07T07:55:44;101320.95;;;14.01;61.69
35307;BME280;21420;52.196;21.416;2024-03-07T07:58:14;101320.98;;;14.39;62.66
35307;BME280;21420;52.196;21.416;2024-03-07T08:00:41;101326.90;;;14.74;62.58
35307;BME280;21420;52.196;21.416;2024-03-07T08:03:11;101324.75;;;14.97;62.62
35307;BME280;21420;52.196;21.416;2024-03-07T08:05:39;101319.27;;;15.49;63.12
35307;BME280;21420;52.196;21.416;2024-03-07T08:08:07;101324.14;;;15.87;62.42
35307;BME280;21420;52.196;21.416;2024-03-07T08:10:37;101324.08;;;15.49;61.13
35307;BME280;21420;52.196;21.416;2024-03-07T08:13:06;101325.41;;;15.52;61.11
35307;BME280;21420;52.196;21.416;2024-03-07T08:15:35;101323.63;;;15.38;60.53
35307;BME280;21420;52.196;21.416;2024-03-07T08:18:02;101320.53;;;15.35;60.65
35307;BME280;21420;52.196;21.416;2024-03-07T08:20:37;101320.86;;;15.70;60.84
35307;BME280;21420;52.196;21.416;2024-03-07T08:23:07;101319.98;;;15.62;60.14
35307;BME280;21420;52.196;21.416;2024-03-07T08:25:35;101318.84;;;15.98;61.05
35307;BME280;21420;52.196;21.416;2024-03-07T08:28:03;101318.68;;;16.36;60.72
35307;BME280;21420;52.196;21.416;2024-03-07T08:30:32;101321.52;;;16.76;60.84
35307;BME280;21420;52.196;21.416;2024-03-07T08:32:59;101318.77;;;16.60;59.07
35307;BME280;21420;52.196;21.416;2024-03-07T08:35:30;101317.64;;;16.30;58.88
35307;BME280;21420;52.196;21.416;2024-03-07T08:37:58;101316.42;;;16.15;58.65
35307;BME280;21420;52.196;21.416;2024-03-07T08:40:28;101320.41;;;15.92;58.23
35307;BME280;21420;52.196;21.416;2024-03-07T08:43:01;101325.88;;;15.95;58.60
35307;BME280;21420;52.196;21.416;2024-03-07T08:45:29;101324.05;;;16.11;58.88
35307;BME280;21420;52.196;21.416;2024-03-07T08:48:03;101323.58;;;16.39;58.79
35307;BME280;21420;52.196;21.416;2024-03-07T08:50:32;101322.97;;;16.14;57.62
35307;BME280;21420;52.196;21.416;2024-03-07T08:53:01;101321.10;;;16.36;58.87
35307;BME280;21420;52.196;21.416;2024-03-07T08:55:28;101321.09;;;16.61;58.47
35307;BME280;21420;52.196;21.416;2024-03-07T08:57:58;101324.98;;;16.80;58.64
35307;BME280;21420;52.196;21.416;2024-03-07T09:00:25;101322.33;;;17.09;58.33
35307;BME280;21420;52.196;21.416;2024-03-07T09:02:59;101320.52;;;16.97;57.29
35307;BME280;21420;52.196;21.416;2024-03-07T09:05:30;101315.86;;;16.43;56.55
35307;BME280;21420;52.196;21.416;2024-03-07T09:08:01;101312.98;;;16.39;57.30
35307;BME280;21420;52.196;21.416;2024-03-07T09:10:30;101313.95;;;16.48;57.18
35307;BME280;21420;52.196;21.416;2024-03-07T09:12:58;101312.54;;;16.37;57.07
35307;BME280;21420;52.196;21.416;2024-03-07T09:15:25;101314.74;;;16.90;58.40
35307;BME280;21420;52.196;21.416;2024-03-07T09:17:54;101316.81;;;17.67;59.20
35307;BME280;21420;52.196;21.416;2024-03-07T09:20:21;101314.17;;;18.63;59.62
35307;BME280;21420;52.196;21.416;2024-03-07T09:22:50;101317.36;;;18.59;57.44
35307;BME280;21420;52.196;21.416;2024-03-07T09:25:18;101316.05;;;18.69;58.06
35307;BME280;21420;52.196;21.416;2024-03-07T09:27:47;101313.86;;;18.97;58.14
35307;BME280;21420;52.196;21.416;2024-03-07T09:30:14;101313.77;;;19.58;58.86
35307;BME280;21420;52.196;21.416;2024-03-07T09:32:46;101304.60;;;20.14;58.81
35307;BME280;21420;52.196;21.416;2024-03-07T09:35:13;101307.05;;;20.41;58.70
35307;BME280;21420;52.196;21.416;2024-03-07T09:37:42;101304.11;;;20.71;58.35
35307;BME280;21420;52.196;21.416;2024-03-07T09:40:11;101301.80;;;20.69;57.47
35307;BME280;21420;52.196;21.416;2024-03-07T09:42:47;101305.10;;;20.36;56.84
35307;BME280;21420;52.196;21.416;2024-03-07T09:45:20;101306.34;;;20.28;57.35
35307;BME280;21420;52.196;21.416;2024-03-07T09:47:50;101308.64;;;20.41;57.06
35307;BME280;21420;52.196;21.416;2024-03-07T09:50:21;101310.13;;;20.17;56.54
35307;BME280;21420;52.196;21.416;2024-03-07T09:52:50;101313.48;;;20.25;57.15
35307;BME280;21420;52.196;21.416;2024-03-07T09:55:21;101306.46;;;20.58;57.09
35307;BME280;21420;52.196;21.416;2024-03-07T09:57:54;101317.46;;;20.40;56.32
35307;BME280;21420;52.196;21.416;2024-03-07T10:00:25;101315.90;;;20.15;56.04
35307;BME280;21420;52.196;21.416;2024-03-07T10:03:08;101318.14;;;20.09;56.19
35307;BME280;21420;52.196;21.416;2024-03-07T10:05:37;101312.89;;;20.37;56.46
35307;BME280;21420;52.196;21.416;2024-03-07T10:08:05;101310.22;;;20.20;55.53
35307;BME280;21420;52.196;21.416;2024-03-07T10:10:34;101307.16;;;20.03;55.91
35307;BME280;21420;52.196;21.416;2024-03-07T10:13:01;101305.42;;;19.96;55.64
35307;BME280;21420;52.196;21.416;2024-03-07T10:15:30;101310.43;;;19.90;55.53
35307;BME280;21420;52.196;21.416;2024-03-07T10:17:59;101308.79;;;20.19;56.19
35307;BME280;21420;52.196;21.416;2024-03-07T10:20:27;101307.73;;;20.77;56.76
35307;BME280;21420;52.196;21.416;2024-03-07T10:22:55;101304.36;;;20.57;55.24
35307;BME280;21420;52.196;21.416;2024-03-07T10:25:27;101306.79;;;20.00;53.79
35307;BME280;21420;52.196;21.416;2024-03-07T10:27:56;101307.02;;;19.58;54.42
35307;BME280;21420;52.196;21.416;2024-03-07T10:30:26;101304.98;;;19.87;55.35
35307;BME280;21420;52.196;21.416;2024-03-07T10:32:59;101300.38;;;20.34;55.69
35307;BME280;21420;52.196;21.416;2024-03-07T10:35:29;101297.34;;;20.19;54.27
35307;BME280;21420;52.196;21.416;2024-03-07T10:37:58;101299.98;;;19.93;54.36
35307;BME280;21420;52.196;21.416;2024-03-07T10:40:34;101298.34;;;19.89;54.33
35307;BME280;21420;52.196;21.416;2024-03-07T10:43:11;101300.66;;;19.62;54.00
35307;BME280;21420;52.196;21.416;2024-03-07T10:45:49;101302.42;;;19.46;54.25
35307;BME280;21420;52.196;21.416;2024-03-07T10:48:20;101299.60;;;18.94;52.87
35307;BME280;21420;52.196;21.416;2024-03-07T10:50:59;101295.21;;;18.74;53.47
35307;BME280;21420;52.196;21.416;2024-03-07T10:53:49;101294.95;;;18.65;53.33
35307;BME280;21420;52.196;21.416;2024-03-07T10:59:19;101288.31;;;17.51;51.99
35307;BME280;21420;52.196;21.416;2024-03-07T11:04:22;101287.94;;;17.89;54.18
35307;BME280;21420;52.196;21.416;2024-03-07T11:06:49;101290.18;;;18.55;54.49
35307;BME280;21420;52.196;21.416;2024-03-07T11:09:16;101291.58;;;18.70;53.64
35307;BME280;21420;52.196;21.416;2024-03-07T11:11:50;101289.45;;;18.71;53.54
35307;BME280;21420;52.196;21.416;2024-03-07T11:14:18;101282.77;;;19.07;54.41
35307;BME280;21420;52.196;21.416;2024-03-07T11:16:46;101286.35;;;19.84;55.19
35307;BME280;21420;52.196;21.416;2024-03-07T11:21:46;101289.20;;;19.94;53.22
35307;BME280;21420;52.196;21.416;2024-03-07T11:24:33;101288.36;;;19.68;53.14
35307;BME280;21420;52.196;21.416;2024-03-07T11:27:03;101284.20;;;19.88;53.34
35307;BME280;21420;52.196;21.416;2024-03-07T11:29:40;101277.15;;;20.03;53.59
35307;BME280;21420;52.196;21.416;2024-03-07T11:32:11;101278.55;;;20.43;54.01
35307;BME280;21420;52.196;21.416;2024-03-07T11:34:42;101275.74;;;20.71;53.71
35307;BME280;21420;52.196;21.416;2024-03-07T11:37:17;101272.37;;;20.53;52.95
35307;BME280;21420;52.196;21.416;2024-03-07T11:39:46;101264.50;;;20.59;52.85
35307;BME280;21420;52.196;21.416;2024-03-07T11:42:28;101268.44;;;20.48;52.14
35307;BME280;21420;52.196;21.416;2024-03-07T11:44:58;101265.48;;;19.79;51.39
35307;BME280;21420;52.196;21.416;2024-03-07T11:47:26;101266.90;;;19.38;51.04
35307;BME280;21420;52.196;21.416;2024-03-07T11:49:56;101269.49;;;18.67;50.20
35307;BME280;21420;52.196;21.416;2024-03-07T11:52:25;101263.08;;;17.97;49.76
35307;BME280;21420;52.196;21.416;2024-03-07T11:54:55;101260.79;;;18.08;51.71
35307;BME280;21420;52.196;21.416;2024-03-07T11:57:31;101264.93;;;18.69;51.99
35307;BME280;21420;52.196;21.416;2024-03-07T12:00:03;101258.95;;;18.72;51.45
35307;BME280;21420;52.196;21.416;2024-03-07T12:02:39;101255.16;;;18.28;50.60
35307;BME280;21420;52.196;21.416;2024-03-07T12:05:08;101258.21;;;18.22;51.17
35307;BME280;21420;52.196;21.416;2024-03-07T12:07:36;101254.98;;;18.02;50.55
35307;BME280;21420;52.196;21.416;2024-03-07T12:10:04;101253.30;;;17.68;49.97
35307;BME280;21420;52.196;21.416;2024-03-07T12:12:31;101250.94;;;17.18;50.13
35307;BME280;21420;52.196;21.416;2024-03-07T12:15:00;101251.87;;;17.46;51.21
35307;BME280;21420;52.196;21.416;2024-03-07T12:17:31;101250.70;;;17.47;50.71
35307;BME280;21420;52.196;21.416;2024-03-07T12:19:59;101250.09;;;17.55;51.13
35307;BME280;21420;52.196;21.416;2024-03-07T12:22:30;101245.13;;;18.01;51.72
35307;BME280;21420;52.196;21.416;2024-03-07T12:25:04;101238.78;;;18.33;51.84
35307;BME280;21420;52.196;21.416;2024-03-07T12:27:35;101240.60;;;18.51;51.54
35307;BME280;21420;52.196;21.416;2024-03-07T12:30:15;101239.80;;;18.42;51.39
35307;BME280;21420;52.196;21.416;2024-03-07T12:32:49;101241.20;;;18.40;50.94
35307;BME280;21420;52.196;21.416;2024-03-07T12:35:17;101241.17;;;18.09;50.51
35307;BME280;21420;52.196;21.416;2024-03-07T12:37:45;101240.40;;;18.09;50.93
35307;BME280;21420;52.196;21.416;2024-03-07T12:40:13;101243.12;;;18.41;51.63
35307;BME280;21420;52.196;21.416;2024-03-07T12:42:48;101235.01;;;18.53;50.80
35307;BME280;21420;52.196;21.416;2024-03-07T12:45:19;101228.98;;;18.22;50.65
35307;BME280;21420;52.196;21.416;2024-03-07T12:47:55;101234.84;;;18.21;50.93
35307;BME280;21420;52.196;21.416;2024-03-07T12:50:23;101236.45;;;18.40;51.47
35307;BME280;21420;52.196;21.416;2024-03-07T12:52:50;101235.86;;;18.66;51.37
35307;BME280;21420;52.196;21.416;2024-03-07T12:55:19;101228.94;;;18.73;51.28
35307;BME280;21420;52.196;21.416;2024-03-07T12:57:48;101231.36;;;18.88;51.19
35307;BME280;21420;52.196;21.416;2024-03-07T13:00:17;101233.20;;;18.85;50.65
35307;BME280;21420;52.196;21.416;2024-03-07T13:02:49;101227.67;;;18.60;50.35